EDT,Max TemperatureF,Mean TemperatureF,Min TemperatureF,Max Dew PointF,MeanDew PointF,Min DewpointF,Max Humidity, Mean Humidity, Min Humidity, Max Sea Level PressureIn, Mean Sea Level PressureIn, Min Sea Level PressureIn, Max VisibilityMiles, Mean VisibilityMiles, Min VisibilityMiles, Max Wind SpeedMPH, Mean Wind SpeedMPH, Max Gust SpeedMPH,PrecipitationIn, CloudCover, Events, WindDirDegrees
2013-5-1,82,67,52,57,54,49,90,61,38,30.20,30.15,30.06,10,10,4,10,4,,0.00,0,,124
2013-5-2,78,66,55,55,53,50,84,61,39,30.23,30.17,30.12,10,10,10,15,5,21,0.00,1,,126
2013-5-3,79,69,60,56,48,37,80,52,23,30.11,30.05,29.99,10,10,10,16,7,29,0.00,1,,125
2013-5-4,71,63,55,46,42,37,67,48,31,30.07,30.04,30.00,10,10,10,15,8,24,0.00,0,,97
2013-5-5,73,61,51,46,42,38,71,51,33,30.06,30.02,29.99,10,10,10,15,6,22,0.00,0,,66
2013-5-6,73,64,54,48,44,42,66,50,34,30.04,29.99,29.96,10,10,10,10,6,,0.00,4,,57
2013-5-7,75,63,51,52,49,44,80,58,43,30.04,30.00,29.97,10,10,10,16,5,22,0.00,3,,49
2013-5-8,82,66,52,54,50,47,86,55,30,30.01,29.98,29.94,10,10,9,17,3,24,0.00,4,Rain-Thunderstorm,18
2013-5-9,82,67,53,56,51,45,89,61,28,29.99,29.95,29.91,10,10,6,8,1,21,0.00,3,Rain,238
2013-5-10,72,60,48,60,55,43,94,77,59,29.91,29.82,29.75,10,9,3,14,9,23,0.12,7,Rain,233
2013-5-11,57,50,39,46,42,32,83,75,61,29.98,29.88,29.82,10,10,4,26,9,41,0.02,7,Rain,296
2013-5-12,52,44,35,32,29,25,82,59,39,30.14,30.05,29.97,10,10,10,18,7,28,0.00,3,,288
2013-5-13,59,44,30,31,27,24,85,55,27,30.20,30.16,30.13,10,10,10,13,2,21,0.00,2,,311
2013-5-14,82,63,44,58,44,30,71,47,34,30.12,29.90,29.73,10,10,10,21,7,28,0.00,3,,197
2013-5-15,88,76,66,58,52,44,60,45,24,29.80,29.74,29.66,10,10,10,14,9,24,0.00,1,Rain,261
2013-5-16,84,68,53,49,44,38,80,46,20,29.96,29.89,29.82,10,10,10,7,3,,0.00,0,,272
2013-5-17,81,66,52,49,43,38,61,45,34,30.14,30.06,29.98,10,10,10,15,9,20,0.00,1,,64
2013-5-18,80,67,55,57,48,39,67,53,45,30.13,30.07,30.01,10,10,10,10,7,,0.00,2,,76
2013-5-19,87,70,55,62,56,45,77,56,40,30.03,29.95,29.88,10,10,10,9,4,,0.00,1,,113
2013-5-20,90,78,68,68,64,62,84,62,40,29.94,29.88,29.81,10,10,8,18,8,28,0.00,3,,197
2013-5-21,88,80,71,65,60,56,78,56,36,29.83,29.78,29.72,10,10,9,20,9,26,0.00,1,,212
2013-5-22,81,72,64,63,61,57,84,70,47,29.77,29.73,29.67,10,10,7,21,9,32,0.01,6,Rain,206
2013-5-23,66,57,48,59,51,44,93,80,68,30.16,29.92,29.74,10,10,3,18,9,26,0.07,8,Rain,311
2013-5-24,63,52,42,43,37,33,83,61,34,30.35,30.29,30.17,10,10,10,15,10,20,0.00,2,,1
2013-5-25,69,54,39,40,37,35,89,55,34,30.39,30.33,30.26,10,10,9,8,2,,0.00,0,,43
2013-5-26,70,56,43,41,34,29,82,45,22,30.35,30.29,30.22,10,10,10,7,2,,0.00,0,,101
2013-5-27,61,56,51,55,47,31,94,75,35,30.23,30.11,29.96,10,8,2,12,7,20,0.74,7,Rain,110
2013-5-28,82,69,57,67,61,55,94,82,60,29.96,29.91,29.85,10,7,1,23,4,32,0.19,6,Rain-Thunderstorm,210
2013-5-29,86,78,70,66,62,59,76,61,44,30.01,29.96,29.89,10,10,10,14,10,25,0.00,1,,216
2013-5-30,89,78,69,68,64,59,78,63,46,30.07,30.02,29.96,10,10,10,16,7,26,0.00,2,Thunderstorm,188
2013-5-31,79,72,66,67,65,63,90,77,64,30.00,29.94,29.88,10,8,0,18,9,32,0.65,5,Fog-Rain-Thunderstorm,205